Time;durP1;ratioP1;P1;durP2;ratioP2;P2;SDS_P1;SDS_P2;PMS_P1;PMS_P2;Temp;Humidity;BMP_temperature;BMP_pressure;BME280_temperature;BME280_humidity;BME280_pressure;Samples;Min_cycle;Max_cycle;Signal;HPM_P1;HPM_P2
2024/03/11 00:02:31;;;;;;;10.90;7.40;;;;;;;6.38;82.24;95104.08;110590;1275;22093;-72
2024/03/11 00:05:03;;;;;;;11.70;7.60;;;;;;;6.37;82.25;95102.16;110545;1275;22979;-72
2024/03/11 00:07:55;;;;;;;10.10;7.30;;;;;;;6.37;82.48;95093.41;110565;1275;22284;-72
2024/03/11 00:10:25;;;;;;;13.40;8.80;;;;;;;6.38;82.58;95092.90;110560;1275;22116;-72
2024/03/11 00:13:24;;;;;;;13.50;8.40;;;;;;;6.39;82.70;95086.60;110411;1275;22619;-72
2024/03/11 00:15:53;;;;;;;11.50;7.00;;;;;;;6.39;82.43;95087.11;110602;1275;22152;-72
2024/03/11 00:18:42;;;;;;;12.40;7.70;;;;;;;6.40;82.44;95080.64;110557;1275;22129;-72
2024/03/11 00:21:11;;;;;;;12.60;7.40;;;;;;;6.40;82.24;95079.08;110486;1275;22114;-72
2024/03/11 00:23:40;;;;;;;11.00;7.20;;;;;;;6.41;82.29;95082.39;110574;1275;22186;-72
2024/03/11 00:26:46;;;;;;;;;;;;;;;;;;;;;
2024/03/11 00:29:19;;;;;;;14.10;7.20;;;;;;;6.37;82.19;95084.16;110566;1275;22221;-72
2024/03/11 00:31:51;;;;;;;13.70;7.20;;;;;;;6.36;82.11;95087.67;110570;1272;22101;-72
2024/03/11 00:34:28;;;;;;;15.30;7.40;;;;;;;6.31;82.13;95086.33;110522;1275;22093;-72
2024/03/11 00:37:17;;;;;;;10.10;6.70;;;;;;;6.29;82.22;95085.48;110560;1275;22279;-72
2024/03/11 00:40:07;;;;;;;12.30;7.20;;;;;;;6.29;82.59;95079.88;110586;1275;22192;-72
2024/03/11 00:42:58;;;;;;;11.00;7.00;;;;;;;6.32;82.42;95078.80;110577;1274;22135;-72
2024/03/11 00:45:46;;;;;;;11.50;6.60;;;;;;;6.26;82.59;95081.84;110616;1274;22171;-72
2024/03/11 00:48:43;;;;;;;;;;;;;;;;;;;;;
2024/03/11 00:51:25;;;;;;;;;;;;;;;6.16;83.21;95067.61;110641;1274;22351;-72
2024/03/11 00:54:06;;;;;;;11.50;6.70;;;;;;;6.11;83.29;95071.33;110593;1274;22129;-72
2024/03/11 00:56:42;;;;;;;10.50;6.80;;;;;;;6.13;83.74;95071.31;110609;1274;22984;-72
2024/03/11 00:59:56;;;;;;;15.10;8.80;;;;;;;6.18;83.96;95067.60;110667;1273;22906;-72
2024/03/11 01:02:28;;;;;;;9.90;6.70;;;;;;;6.24;83.70;95070.67;110662;1273;22115;-72
2024/03/11 01:05:00;;;;;;;10.80;7.20;;;;;;;6.31;83.51;95073.93;110646;1274;22094;-72
2024/03/11 01:07:32;;;;;;;9.70;6.40;;;;;;;6.35;83.26;95075.46;110614;1273;22125;-72
2024/03/11 01:10:54;;;;;;;15.40;8.10;;;;;;;6.39;83.16;95074.54;110626;1274;22112;-72
2024/03/11 01:13:22;;;;;;;14.10;7.60;;;;;;;6.41;82.95;95072.41;110627;1274;22115;-72
2024/03/11 01:16:15;;;;;;;15.40;8.40;;;;;;;6.42;82.85;95074.15;110606;1274;22955;-72
2024/03/11 01:19:00;;;;;;;11.80;7.10;;;;;;;6.44;82.80;95065.75;110639;1274;22168;-72
2024/03/11 01:21:49;;;;;;;12.90;8.30;;;;;;;6.43;82.58;95065.75;110620;1274;22118;-72
2024/03/11 01:24:18;;;;;;;15.10;8.60;;;;;;;6.35;82.65;95058.70;110632;1273;22282;-72
2024/03/11 01:26:47;;;;;;;15.90;9.70;;;;;;;6.24;83.11;95057.92;110606;1273;22802;-72
2024/03/11 01:29:21;;;;;;;12.10;7.60;;;;;;;6.19;83.21;95053.61;110582;1273;22116;-72
2024/03/11 01:31:50;;;;;;;10.60;7.30;;;;;;;6.18;83.23;95056.60;110619;1274;22060;-72
2024/03/11 01:34:21;;;;;;;13.90;8.00;;;;;;;6.20;83.18;95055.70;110622;1273;22127;-72
2024/03/11 01:36:53;;;;;;;34.20;14.80;;;;;;;6.20;83.00;95060.41;110666;1273;22119;-72
2024/03/11 01:39:45;;;;;;;11.50;7.10;;;;;;;6.19;83.08;95055.70;110647;1274;22910;-72
2024/03/11 01:42:34;;;;;;;24.40;11.80;;;;;;;6.20;83.19;95052.39;110605;1273;22123;-72
2024/03/11 01:45:03;;;;;;;19.50;10.80;;;;;;;6.15;83.20;95048.07;110566;1274;22283;-73
2024/03/11 01:47:47;;;;;;;17.10;10.00;;;;;;;6.08;83.86;95046.04;110615;1273;22132;-72
2024/03/11 01:50:17;;;;;;;16.00;9.40;;;;;;;5.99;83.80;95047.01;110622;1273;22616;-72
2024/03/11 01:52:49;;;;;;;20.50;10.70;;;;;;;5.96;83.61;95038.48;110676;1273;22320;-72
2024/03/11 01:55:22;;;;;;;20.00;11.10;;;;;;;5.92;83.79;95037.27;110615;1273;22112;-72
2024/03/11 01:57:54;;;;;;;16.20;9.20;;;;;;;5.89;83.61;95033.45;110453;1273;22820;-72
2024/03/11 02:00:24;;;;;;;17.90;10.40;;;;;;;5.87;83.78;95031.90;110492;1273;22191;-72
2024/03/11 02:03:13;;;;;;;17.10;10.80;;;;;;;5.85;83.67;95032.61;110593;1273;22161;-72
2024/03/11 02:06:02;;;;;;;17.10;10.10;;;;;;;5.79;84.95;95038.79;110649;1259;22752;-72
2024/03/11 02:08:51;;;;;;;27.30;13.30;;;;;;;5.74;84.89;95040.75;110653;1273;22923;-72
2024/03/11 02:11:40;;;;;;;26.80;13.60;;;;;;;5.70;84.87;95031.89;110653;1273;22137;-72
2024/03/11 02:14:11;;;;;;;16.80;10.60;;;;;;;5.67;85.00;95035.75;110616;1273;22124;-72
2024/03/11 02:16:41;;;;;;;22.30;11.90;;;;;;;5.65;84.64;95041.70;110641;1273;22760;-72
2024/03/11 02:19:17;;;;;;;25.90;13.90;;;;;;;5.62;84.84;95042.25;110648;1273;22798;-72
2024/03/11 02:21:46;;;;;;;19.80;9.00;;;;;;;5.61;84.66;95038.59;110591;1273;22284;-72
2024/03/11 02:24:21;;;;;;;11.90;6.90;;;;;;;5.62;84.75;95038.75;110644;1273;22111;-72
2024/03/11 02:27:10;;;;;;;10.60;6.50;;;;;;;5.67;85.02;95033.65;110643;1273;22166;-72
2024/03/11 02:29:39;;;;;;;10.60;6.60;;;;;;;5.72;85.13;95032.39;110626;1274;22146;-72
2024/03/11 02:32:19;;;;;;;15.40;7.90;;;;;;;5.72;85.05;95039.54;110619;1273;22087;-72
2024/03/11 02:34:47;;;;;;;35.60;15.80;;;;;;;5.71;85.49;95029.95;110661;1274;22174;-72
2024/03/11 02:37:36;;;;;;;19.20;11.90;;;;;;;5.71;85.43;95010.77;110634;1273;22871;-72
2024/03/11 02:40:09;;;;;;;34.30;15.20;;;;;;;5.70;85.18;95021.94;110644;1262;22752;-72
2024/03/11 02:42:44;;;;;;;11.60;7.00;;;;;;;5.71;85.65;95019.47;110598;1273;22869;-72
2024/03/11 02:45:17;;;;;;;15.30;7.50;;;;;;;5.78;85.89;95022.38;110669;1274;22108;-72
2024/03/11 02:47:54;;;;;;;9.20;6.30;;;;;;;5.87;85.85;95015.84;110562;1274;22193;-72
2024/03/11 02:50:25;;;;;;;25.30;10.80;;;;;;;6.00;85.65;95026.05;110592;1274;22109;-72
2024/03/11 02:53:17;;;;;;;15.90;9.20;;;;;;;6.10;85.32;95014.94;110626;1273;22311;-72
2024/03/11 02:55:52;;;;;;;13.10;8.30;;;;;;;6.18;84.86;95020.27;110651;1273;22089;-72
2024/03/11 02:58:26;;;;;;;25.00;14.40;;;;;;;6.24;84.60;95019.16;110649;1273;22132;-72
2024/03/11 03:00:56;;;;;;;11.40;7.50;;;;;;;6.29;84.32;95026.61;110652;1274;23145;-72
2024/03/11 03:03:24;;;;;;;11.50;7.00;;;;;;;6.33;84.10;95031.64;110634;1274;22075;-72
2024/03/11 03:06:04;;;;;;;9.90;6.70;;;;;;;6.37;83.92;95029.14;110650;1274;22155;-72
2024/03/11 03:08:32;;;;;;;12.30;7.40;;;;;;;6.41;83.66;95022.80;110601;1274;22144;-72
2024/03/11 03:11:04;;;;;;;11.60;7.40;;;;;;;6.43;83.63;95021.39;110573;1273;22239;-72
2024/03/11 03:13:53;;;;;;;11.70;6.70;;;;;;;6.42;83.43;95043.77;110642;1273;22243;-72
2024/03/11 03:16:21;;;;;;;14.60;8.20;;;;;;;6.41;83.39;95026.48;110641;1273;22098;-72
2024/03/11 03:19:10;;;;;;;11.90;6.90;;;;;;;6.43;83.39;95020.15;110658;1274;22210;-72
2024/03/11 03:21:39;;;;;;;11.50;7.60;;;;;;;6.44;83.28;95022.42;110622;1274;22240;-72
2024/03/11 03:24:28;;;;;;;13.50;7.90;;;;;;;6.41;83.26;95019.33;110590;1273;22947;-72
2024/03/11 03:26:57;;;;;;;12.80;7.40;;;;;;;6.43;83.33;95022.79;110611;1273;22150;-72
2024/03/11 03:29:46;;;;;;;13.20;8.30;;;;;;;6.39;83.42;95026.49;110640;1274;23085;-72
2024/03/11 03:32:19;;;;;;;11.40;7.00;;;;;;;6.41;83.23;95024.20;110603;1273;22163;-72
2024/03/11 03:35:09;;;;;;;13.10;7.10;;;;;;;6.44;83.12;95038.31;110662;1274;22107;-72
2024/03/11 03:38:02;;;;;;;13.20;8.10;;;;;;;6.44;83.10;95032.55;110639;1274;22218;-72
2024/03/11 03:40:31;;;;;;;13.10;8.10;;;;;;;6.41;83.37;95037.48;110675;1259;22099;-72
2024/03/11 03:43:03;;;;;;;14.00;7.10;;;;;;;6.42;83.13;95033.98;110614;1273;22185;-72
2024/03/11 03:45:55;;;;;;;14.00;7.90;;;;;;;6.42;83.10;95037.11;110651;1273;22266;-72
2024/03/11 03:48:24;;;;;;;10.80;7.10;;;;;;;6.42;83.05;95028.21;110667;1260;22726;-72
2024/03/11 03:50:54;;;;;;;20.10;12.40;;;;;;;6.42;83.30;95034.15;110620;1273;22126;-72
2024/03/11 03:53:29;;;;;;;19.30;10.90;;;;;;;6.41;83.51;95048.85;110642;1273;23002;-72
2024/03/11 03:56:00;;;;;;;12.00;7.80;;;;;;;6.44;83.24;95051.06;110624;1273;22154;-72
2024/03/11 03:58:29;;;;;;;15.20;8.00;;;;;;;6.46;83.14;95056.83;110609;1274;22341;-72
2024/03/11 04:01:25;;;;;;;16.10;10.50;;;;;;;6.49;83.07;95033.19;110635;1273;22149;-73
2024/03/11 04:04:13;;;;;;;;;;;;;;;;;;;;;
2024/03/11 04:07:09;;;;;;;11.40;7.50;;;;;;;6.52;82.86;95038.39;110607;1273;22128;-73
2024/03/11 04:09:59;;;;;;;12.20;8.60;;;;;;;6.53;82.73;95042.23;110608;1273;22988;-72
2024/03/11 04:12:40;;;;;;;13.40;7.80;;;;;;;6.50;82.73;95046.29;110664;1273;22155;-72
2024/03/11 04:15:37;;;;;;;12.80;7.20;;;;;;;6.48;82.75;95048.40;110638;1273;22117;-72
2024/03/11 04:18:10;;;;;;;19.70;10.70;;;;;;;6.47;82.83;95033.38;110628;1273;22084;-72
2024/03/11 04:20:59;;;;;;;13.80;8.40;;;;;;;6.45;82.86;95040.41;110628;1274;22298;-72
2024/03/11 04:26:41;;;;;;;12.30;7.60;;;;;;;6.43;83.04;95046.19;110621;1274;22727;-72
2024/03/11 04:29:43;;;;;;;12.10;7.10;;;;;;;6.44;83.07;95051.59;110637;1274;22110;-72
2024/03/11 04:32:11;;;;;;;14.60;8.60;;;;;;;6.44;83.15;95050.38;110620;1273;22106;-72
2024/03/11 04:34:45;;;;;;;12.40;8.00;;;;;;;6.43;83.09;95046.71;110650;1273;22100;-72
2024/03/11 04:37:14;;;;;;;15.60;9.30;;;;;;;6.41;83.22;95046.58;110618;1274;22263;-72
2024/03/11 04:43:17;;;;;;;21.30;12.50;;;;;;;6.44;83.17;95042.86;110492;1273;22098;-72
2024/03/11 04:46:11;;;;;;;15.30;10.00;;;;;;;6.43;83.15;95036.76;110597;1274;22921;-72
2024/03/11 04:48:40;;;;;;;26.50;14.10;;;;;;;6.42;83.19;95044.45;110624;1273;22120;-72
2024/03/11 04:51:29;;;;;;;35.80;18.20;;;;;;;6.43;83.11;95050.03;110611;1273;22078;-72
2024/03/11 04:54:08;;;;;;;15.40;10.70;;;;;;;6.44;82.95;95048.63;110634;1273;22132;-72
2024/03/11 04:57:00;;;;;;;17.40;10.70;;;;;;;6.43;82.88;95052.48;110635;1274;22804;-72
2024/03/11 04:59:29;;;;;;;18.30;11.10;;;;;;;6.43;82.73;95043.93;110632;1260;22274;-72
2024/03/11 05:02:35;;;;;;;16.80;9.80;;;;;;;6.43;82.71;95044.09;110624;1274;22206;-72
2024/03/11 05:05:27;;;;;;;20.60;12.00;;;;;;;6.40;82.62;95047.44;110596;1274;22885;-72
2024/03/11 05:08:16;;;;;;;;;;;;;;;;;;;;;
2024/03/11 05:11:05;;;;;;;22.10;11.30;;;;;;;6.41;82.41;95051.98;110631;1273;22586;-72
2024/03/11 05:13:50;;;;;;;;;;;;;;;;;;;;;
2024/03/11 05:16:21;;;;;;;27.10;15.30;;;;;;;6.43;82.30;95060.86;110593;1273;22123;-72
2024/03/11 05:18:52;;;;;;;23.20;15.30;;;;;;;6.44;82.24;95058.58;110620;1273;22183;-72
2024/03/11 05:21:22;;;;;;;26.10;14.80;;;;;;;6.44;82.32;95056.67;110484;1273;22108;-72
2024/03/11 05:24:04;;;;;;;34.40;19.20;;;;;;;6.43;82.47;95062.80;110650;1260;22113;-72
2024/03/11 05:26:33;;;;;;;39.00;24.10;;;;;;;6.42;82.66;95063.86;110644;1273;22171;-72
2024/03/11 05:29:23;;;;;;;;;;;;;;;;;;;;;
2024/03/11 05:32:08;;;;;;;28.10;16.50;;;;;;;6.41;82.23;95067.70;110642;1273;22106;-72
2024/03/11 05:34:37;;;;;;;29.50;17.70;;;;;;;6.43;82.21;95065.59;110625;1273;22096;-72
2024/03/11 05:37:18;;;;;;;33.30;19.80;;;;;;;6.43;82.27;95083.05;110631;1273;22281;-72
2024/03/11 05:39:46;;;;;;;33.60;19.90;;;;;;;6.43;82.16;95077.29;110648;1273;22294;-72
2024/03/11 05:42:21;;;;;;;22.80;13.00;;;;;;;6.43;82.21;95076.06;110480;1273;22100;-72
2024/03/11 05:44:59;;;;;;;19.90;11.80;;;;;;;6.45;82.16;95074.30;110613;1273;22117;-72
2024/03/11 05:47:31;;;;;;;28.20;15.30;;;;;;;6.43;82.16;95064.88;110620;1273;22123;-72
2024/03/11 05:50:02;;;;;;;30.10;18.30;;;;;;;6.43;82.27;95078.00;110618;1273;22177;-72
2024/03/11 05:52:44;;;;;;;34.50;18.50;;;;;;;6.44;82.25;95076.22;110475;1273;22187;-72
2024/03/11 05:55:34;;;;;;;16.10;11.20;;;;;;;6.45;82.16;95083.39;110616;1273;22115;-71
2024/03/11 05:58:08;;;;;;;17.40;11.40;;;;;;;6.48;82.04;95090.52;110621;1273;22220;-71
2024/03/11 06:01:12;;;;;;;14.00;9.90;;;;;;;6.50;81.95;95104.30;110602;1273;22176;-73
2024/03/11 06:03:40;;;;;;;19.00;11.60;;;;;;;6.53;81.91;95113.17;110603;1273;22799;-72
2024/03/11 06:06:11;;;;;;;17.00;10.50;;;;;;;6.56;81.82;95107.73;110576;1273;23188;-73
2024/03/11 06:08:57;;;;;;;;;;;;;;;;;;;;;
2024/03/11 06:11:28;;;;;;;20.20;10.90;;;;;;;6.59;81.32;95115.22;110635;1273;22830;-72
2024/03/11 06:13:58;;;;;;;22.00;14.30;;;;;;;6.61;81.43;95107.66;110585;1273;22148;-73
2024/03/11 06:16:47;;;;;;;23.60;12.10;;;;;;;6.61;81.68;95108.38;110587;1273;22091;-75
2024/03/11 06:19:20;;;;;;;24.20;14.80;;;;;;;6.62;81.59;95087.73;110593;1273;22277;-73
2024/03/11 06:21:49;;;;;;;30.30;16.60;;;;;;;6.61;81.82;95101.20;110577;1274;22151;-73
2024/03/11 06:24:22;;;;;;;23.30;15.60;;;;;;;6.61;81.83;95096.32;110612;1273;22152;-72
2024/03/11 06:26:54;;;;;;;28.10;15.80;;;;;;;6.61;81.71;95100.50;110648;1273;22990;-71
2024/03/11 06:29:26;;;;;;;27.60;16.90;;;;;;;6.61;81.73;95103.83;110589;1273;22812;-72
2024/03/11 06:32:18;;;;;;;16.50;10.40;;;;;;;6.62;81.58;95101.36;110601;1273;22270;-71
2024/03/11 06:34:57;;;;;;;26.20;15.70;;;;;;;6.67;81.43;95094.33;110594;1273;22102;-72
2024/03/11 06:37:28;;;;;;;33.80;19.20;;;;;;;6.67;81.28;95094.67;110442;1273;22164;-74
2024/03/11 06:39:57;;;;;;;31.80;17.80;;;;;;;6.71;81.02;95090.77;110608;1273;22891;-71
2024/03/11 06:42:26;;;;;;;26.70;14.20;;;;;;;6.74;80.73;95083.94;110580;1274;22180;-73
2024/03/11 06:45:15;;;;;;;21.90;13.80;;;;;;;6.76;80.57;95088.62;110584;1274;22120;-71
2024/03/11 06:48:04;;;;;;;21.40;12.80;;;;;;;6.84;80.57;95088.88;110630;1273;22785;-71
2024/03/11 06:50:33;;;;;;;21.10;13.10;;;;;;;6.88;80.16;95093.89;110630;1273;22105;-71
2024/03/11 06:53:06;;;;;;;24.00;13.50;;;;;;;6.93;79.75;95092.27;110593;1273;22353;-71
2024/03/11 06:55:34;;;;;;;22.40;12.10;;;;;;;7.00;79.80;95093.94;110612;1274;22362;-72
2024/03/11 06:58:23;;;;;;;19.30;11.80;;;;;;;7.06;79.55;95093.67;110530;1271;22104;-72
2024/03/11 07:00:54;;;;;;;17.80;11.10;;;;;;;7.13;79.13;95096.73;110622;1274;23103;-71
2024/03/11 07:03:26;;;;;;;16.60;10.80;;;;;;;7.18;78.78;95101.21;110630;1273;22101;-71
2024/03/11 07:06:02;;;;;;;17.60;10.10;;;;;;;7.24;78.77;95109.53;110568;1274;22144;-74
2024/03/11 07:08:34;;;;;;;22.60;12.10;;;;;;;7.26;78.40;95111.42;110543;1275;22167;-73
2024/03/11 07:11:03;;;;;;;20.30;14.80;;;;;;;7.32;78.83;95107.48;110426;1275;22178;-75
2024/03/11 07:13:35;;;;;;;18.10;10.80;;;;;;;7.38;78.63;95097.27;110479;1275;22221;-74
2024/03/11 07:16:09;;;;;;;14.70;9.60;;;;;;;7.43;78.54;95109.25;110527;1275;22272;-74
2024/03/11 07:18:40;;;;;;;21.90;13.20;;;;;;;7.47;78.48;95107.28;110501;1275;22175;-74
2024/03/11 07:21:10;;;;;;;15.10;9.80;;;;;;;7.51;78.05;95100.39;110269;1275;22337;-74
2024/03/11 07:23:39;;;;;;;18.20;10.80;;;;;;;7.53;77.51;95101.42;110505;1275;22304;-74
2024/03/11 07:26:10;;;;;;;15.90;10.20;;;;;;;7.55;77.74;95100.16;110512;1275;22258;-74
2024/03/11 07:28:39;;;;;;;15.70;10.60;;;;;;;7.57;77.28;95105.91;110532;1275;22207;-73
2024/03/11 07:31:11;;;;;;;14.80;10.20;;;;;;;7.62;77.24;95105.67;110472;1275;22941;-72
2024/03/11 07:33:39;;;;;;;21.00;11.50;;;;;;;7.68;77.20;95108.02;110461;1275;22154;-71
2024/03/11 07:36:12;;;;;;;16.90;10.00;;;;;;;7.70;77.12;95110.62;110520;1275;22153;-73
2024/03/11 07:38:43;;;;;;;13.90;9.50;;;;;;;7.73;77.34;95105.66;110518;1275;22169;-76
2024/03/11 07:41:34;;;;;;;14.50;9.40;;;;;;;7.76;77.07;95103.70;110523;1275;22189;-73
2024/03/11 07:44:01;;;;;;;15.10;10.00;;;;;;;7.82;76.71;95104.30;110449;1275;22174;-75
2024/03/11 07:46:30;;;;;;;20.40;12.70;;;;;;;7.86;76.46;95107.04;110522;1275;22986;-73
2024/03/11 07:49:11;;;;;;;15.90;10.50;;;;;;;7.97;76.62;95106.68;110530;1275;22154;-75
2024/03/11 07:51:40;;;;;;;21.80;11.30;;;;;;;8.10;76.44;95106.64;110551;1275;22324;-74
2024/03/11 07:54:11;;;;;;;18.30;11.10;;;;;;;8.24;76.21;95100.98;110494;1262;22328;-72
2024/03/11 07:56:40;;;;;;;18.20;10.30;;;;;;;8.40;76.71;95103.52;106110;1275;5826876;-72
2024/03/11 07:59:16;;;;;;;15.90;10.90;;;;;;;8.53;76.25;95105.05;110505;1275;22248;-74
2024/03/11 08:01:46;;;;;;;16.80;10.00;;;;;;;8.61;75.41;95108.05;110453;1275;22772;-74
2024/03/11 08:04:15;;;;;;;15.40;9.60;;;;;;;8.64;75.01;95107.46;110568;1275;22144;-73
2024/03/11 08:06:44;;;;;;;17.60;10.60;;;;;;;8.68;74.79;95106.87;110604;1275;22136;-71
2024/03/11 08:09:14;;;;;;;15.30;9.80;;;;;;;8.76;75.11;95116.70;110603;1275;22607;-77
2024/03/11 08:11:43;;;;;;;15.90;9.30;;;;;;;8.85;74.74;95114.95;110584;1275;22294;-72
